Time;durP1;ratioP1;P1;durP2;ratioP2;P2;SDS_P1;SDS_P2;PMS_P1;PMS_P2;Temp;Humidity;BMP_temperature;BMP_pressure;BME280_temperature;BME280_humidity;BME280_pressure;Samples;Min_cycle;Max_cycle;Signal;HPM_P1;HPM_P2
2021/08/25 00:01:31;;;;;;;;;8.00;7.75;;;;;18.30;50.94;101916.19;5040147;28;45619;-61
2021/08/25 00:03:56;;;;;;;;;9.50;7.25;;;;;18.26;51.47;101917.22;5030832;28;45445;-61
2021/08/25 00:06:21;;;;;;;;;10.25;10.25;;;;;18.20;50.47;101910.41;5038752;28;46551;-61
2021/08/25 00:08:47;;;;;;;;;11.50;9.75;;;;;18.23;51.88;101912.09;5040092;28;45650;-61
2021/08/25 00:11:12;;;;;;;;;9.75;8.25;;;;;18.20;51.98;101914.81;5018939;28;45588;-61
2021/08/25 00:13:37;;;;;;;;;9.00;9.00;;;;;18.19;51.67;101910.47;5039367;28;46077;-61
2021/08/25 00:16:03;;;;;;;;;9.25;9.25;;;;;18.16;51.89;101905.34;5039309;28;45225;-61
2021/08/25 00:18:28;;;;;;;;;6.00;4.25;;;;;18.14;52.53;101905.41;5040408;28;45442;-61
2021/08/25 00:20:54;;;;;;;;;11.00;9.75;;;;;18.12;52.60;101896.72;5039584;28;45277;-61
2021/08/25 00:23:19;;;;;;;;;11.50;8.75;;;;;18.08;51.47;101895.16;5039727;28;45401;-61
2021/08/25 00:25:44;;;;;;;;;12.00;9.75;;;;;18.02;52.05;101899.78;5040285;28;45256;-61
2021/08/25 00:28:10;;;;;;;;;12.00;10.50;;;;;17.96;52.21;101897.41;5040405;28;45218;-61
2021/08/25 00:30:35;;;;;;;;;12.00;10.00;;;;;17.93;51.65;101901.88;5040016;28;45147;-61
2021/08/25 00:33:01;;;;;;;;;10.50;8.00;;;;;17.88;52.26;101892.47;5040353;28;45318;-61
2021/08/25 00:35:26;;;;;;;;;13.25;11.00;;;;;17.81;53.01;101894.44;5038889;28;45443;-61
2021/08/25 00:37:52;;;;;;;;;11.75;10.00;;;;;17.76;53.30;101892.94;5040054;28;45328;-61
2021/08/25 00:40:18;;;;;;;;;8.75;8.00;;;;;17.73;53.10;101891.28;5039939;28;45493;-62
2021/08/25 00:42:43;;;;;;;;;6.25;6.00;;;;;17.69;53.33;101888.84;5039977;28;45375;-61
2021/08/25 00:45:10;;;;;;;;;12.00;10.00;;;;;17.64;53.95;101887.22;5039667;28;45457;-61
2021/08/25 00:47:42;;;;;;;;;11.75;8.50;;;;;17.63;53.46;101889.91;5040146;28;45450;-61
2021/08/25 00:50:13;;;;;;;;;9.25;8.00;;;;;17.60;54.38;101876.84;5038812;28;45676;-61
2021/08/25 00:52:40;;;;;;;;;12.50;10.25;;;;;17.58;54.17;101890.06;5038195;28;46575;-63
2021/08/25 00:55:06;;;;;;;;;13.00;10.00;;;;;17.55;54.22;101889.31;5036066;28;45524;-61
2021/08/25 00:57:35;;;;;;;;;12.00;11.00;;;;;17.52;53.96;101894.69;5035637;28;45400;-61
2021/08/25 01:00:00;;;;;;;;;12.00;10.00;;;;;17.49;54.05;101889.56;5038926;28;46890;-60
2021/08/25 01:02:37;;;;;;;;;10.50;9.75;;;;;17.44;54.52;101886.25;5038801;28;46348;-61
2021/08/25 01:05:04;;;;;;;;;11.00;9.50;;;;;17.41;55.19;101887.19;5014072;28;45401;-60
2021/08/25 01:07:33;;;;;;;;;10.50;9.00;;;;;17.34;55.71;101886.59;5039196;28;45301;-61
2021/08/25 01:09:58;;;;;;;;;11.75;10.75;;;;;17.27;55.83;101884.25;5039086;28;45313;-61
2021/08/25 01:12:27;;;;;;;;;9.75;9.00;;;;;17.25;56.15;101878.22;5038618;28;46724;-62
2021/08/25 01:14:54;;;;;;;;;14.50;8.00;;;;;17.20;55.47;101880.97;5036662;28;45308;-62
2021/08/25 01:17:22;;;;;;;;;8.75;8.25;;;;;17.16;55.89;101878.53;5036467;28;45471;-63
2021/08/25 01:19:56;;;;;;;;;14.00;12.00;;;;;17.14;55.60;101873.34;5037181;28;45490;-63
2021/08/25 01:22:21;;;;;;;;;13.00;11.50;;;;;17.13;56.02;101879.50;5038188;28;45553;-63
2021/08/25 01:24:56;;;;;;;;;13.75;12.00;;;;;17.12;55.67;101871.69;5036618;28;45445;-63
2021/08/25 01:27:24;;;;;;;;;9.50;8.00;;;;;17.08;56.87;101883.22;5039216;28;45478;-63
2021/08/25 01:29:51;;;;;;;;;9.75;6.50;;;;;17.06;56.85;101870.13;5039143;28;45630;-63
2021/08/25 01:32:17;;;;;;;;;14.75;12.00;;;;;17.07;56.38;101874.47;5039154;28;45288;-62
2021/08/25 01:34:53;;;;;;;;;9.00;9.00;;;;;17.05;56.74;101871.06;5039107;28;45237;-63
2021/08/25 01:37:20;;;;;;;;;17.50;12.00;;;;;17.03;56.95;101875.50;5039320;28;45245;-63
2021/08/25 01:39:46;;;;;;;;;10.75;10.75;;;;;17.05;56.81;101872.81;5039064;28;45430;-64
2021/08/25 01:42:12;;;;;;;;;12.75;9.75;;;;;17.03;57.19;101875.50;5038934;28;46184;-64
2021/08/25 01:44:37;;;;;;;;;9.00;8.75;;;;;16.99;58.22;101860.75;5039174;28;45515;-63
2021/08/25 01:47:03;;;;;;;;;10.00;9.00;;;;;17.00;56.89;101872.97;5039210;28;45435;-62
2021/08/25 01:49:28;;;;;;;;;11.00;9.75;;;;;16.97;57.31;101865.19;5039285;28;45471;-63
2021/08/25 01:51:57;;;;;;;;;12.75;10.00;;;;;16.97;58.27;101865.19;5038457;28;45459;-63
2021/08/25 01:54:23;;;;;;;;;11.50;9.25;;;;;16.96;57.56;101866.13;5036725;28;45220;-63
2021/08/25 01:56:48;;;;;;;;;13.25;12.00;;;;;16.97;58.48;101866.06;5034781;28;45456;-57
2021/08/25 01:59:13;;;;;;;;;8.25;7.00;;;;;17.21;60.54;101861.66;5035843;28;45395;-57
2021/08/25 02:01:39;;;;;;;;;12.25;12.00;;;;;17.53;61.68;101859.59;5034892;28;51960;-56
2021/08/25 02:04:04;;;;;;;;;10.00;8.25;;;;;17.82;59.94;101862.00;5035249;28;45401;-55
2021/08/25 02:06:29;;;;;;;;;9.75;9.00;;;;;18.02;60.40;101863.84;5036779;28;45641;-56
2021/08/25 02:08:55;;;;;;;;;11.75;10.50;;;;;18.14;59.83;101865.09;5038184;28;45463;-58
2021/08/25 02:11:20;;;;;;;;;9.25;9.00;;;;;18.21;58.81;101858.66;5038593;28;46101;-58
2021/08/25 02:13:46;;;;;;;;;10.25;9.00;;;;;18.26;57.74;101855.84;5040882;28;45431;-58
2021/08/25 02:16:12;;;;;;;;;10.75;10.00;;;;;18.26;58.82;101856.72;5042433;28;45423;-54
2021/08/25 02:18:37;;;;;;;;;12.00;10.00;;;;;18.23;56.88;101854.22;5042434;28;45459;-57
2021/08/25 02:21:02;;;;;;;;;10.00;10.00;;;;;18.24;57.13;101854.13;5038477;28;45528;-54
2021/08/25 02:23:28;;;;;;;;;13.25;10.50;;;;;18.29;58.24;101843.41;5039955;28;45422;-55
2021/08/25 02:25:53;;;;;;;;;10.50;8.75;;;;;18.33;57.75;101837.09;5037217;28;45473;-55
2021/08/25 02:28:18;;;;;;;;;11.50;10.00;;;;;18.40;56.14;101842.94;5041928;28;45435;-57
2021/08/25 02:30:44;;;;;;;;;10.50;10.00;;;;;18.30;57.36;101831.09;5041548;28;45443;-56
2021/08/25 02:33:09;;;;;;;;;11.75;9.50;;;;;18.19;57.18;101835.03;5041205;28;45277;-57
2021/08/25 02:35:34;;;;;;;;;12.00;11.00;;;;;18.19;56.93;101844.69;5040944;28;45567;-57
2021/08/25 02:38:00;;;;;;;;;11.00;8.75;;;;;18.26;56.57;101843.53;5038923;28;45525;-57
2021/08/25 02:40:25;;;;;;;;;9.25;7.00;;;;;18.22;57.45;101839.34;5037131;28;46202;-57
2021/08/25 02:42:51;;;;;;;;;9.25;9.25;;;;;18.35;57.05;101840.50;5041037;28;45430;-57
2021/08/25 02:45:16;;;;;;;;;9.50;7.75;;;;;18.34;57.23;101846.69;5031728;28;45533;-57
2021/08/25 02:47:42;;;;;;;;;8.50;8.00;;;;;18.34;57.12;101846.69;5041269;28;45534;-57
2021/08/25 02:50:07;;;;;;;;;12.50;9.50;;;;;18.33;57.00;101844.13;5041999;28;45206;-57
2021/08/25 02:52:33;;;;;;;;;14.50;10.25;;;;;18.30;55.63;101858.28;5041036;28;45203;-57
2021/08/25 02:54:59;;;;;;;;;14.50;11.00;;;;;18.17;56.33;101852.66;5023478;28;45359;-57
2021/08/25 02:57:24;;;;;;;;;12.25;10.75;;;;;18.02;56.34;101852.44;5040566;28;45948;-57
2021/08/25 02:59:49;;;;;;;;;13.25;9.00;;;;;17.92;56.46;101841.44;5040809;28;45990;-57
2021/08/25 03:02:15;;;;;;;;;9.75;9.00;;;;;17.85;57.08;101842.63;5040916;28;45285;-57
2021/08/25 03:04:40;;;;;;;;;10.00;7.75;;;;;17.92;56.99;101834.41;5040926;28;45277;-57
2021/08/25 03:07:05;;;;;;;;;15.75;13.00;;;;;18.00;57.19;101835.84;5041683;28;45460;-57
2021/08/25 03:09:31;;;;;;;;;13.00;11.75;;;;;18.06;57.30;101847.00;5042080;28;45465;-57
2021/08/25 03:11:57;;;;;;;;;12.00;11.00;;;;;18.10;56.89;101837.22;5041772;28;45300;-57
2021/08/25 03:14:22;;;;;;;;;12.50;11.50;;;;;18.06;56.42;101836.47;5042412;28;45504;-57
2021/08/25 03:16:47;;;;;;;;;7.50;6.25;;;;;18.04;56.74;101840.94;5041978;28;45623;-57
2021/08/25 03:19:13;;;;;;;;;10.00;10.00;;;;;18.03;57.14;101839.25;5042121;28;45310;-57
2021/08/25 03:21:41;;;;;;;;;14.00;12.00;;;;;18.06;58.37;101833.00;5020570;28;45322;-57
2021/08/25 03:24:07;;;;;;;;;13.75;12.00;;;;;18.06;56.68;101827.72;5038786;28;45218;-57
2021/08/25 03:26:33;;;;;;;;;12.50;10.00;;;;;18.06;56.79;101833.00;5041757;28;45451;-57
2021/08/25 03:28:58;;;;;;;;;15.25;12.00;;;;;17.92;56.79;101826.50;5041712;28;45166;-57
2021/08/25 03:31:23;;;;;;;;;13.00;12.75;;;;;17.91;56.97;101834.47;5041909;28;45296;-57
2021/08/25 03:33:49;;;;;;;;;11.50;10.50;;;;;17.76;56.51;101825.41;5041933;28;45228;-57
2021/08/25 03:36:14;;;;;;;;;13.50;11.50;;;;;17.59;57.29;101826.03;5041491;28;45220;-57
2021/08/25 03:38:39;;;;;;;;;11.25;10.75;;;;;17.56;58.58;101823.53;5041195;28;46325;-57
2021/08/25 03:41:05;;;;;;;;;17.00;14.75;;;;;17.70;58.44;101815.16;5041892;28;45450;-57
2021/08/25 03:43:30;;;;;;;;;11.25;7.75;;;;;17.71;58.62;101821.28;5041635;28;45221;-57
2021/08/25 03:45:55;;;;;;;;;11.00;10.00;;;;;17.70;58.71;101822.19;5041689;28;45150;-57
2021/08/25 03:48:21;;;;;;;;;7.75;7.00;;;;;17.78;57.63;101828.84;5041515;28;45349;-57
2021/08/25 03:50:46;;;;;;;;;14.00;14.00;;;;;17.81;58.36;101823.44;5041093;28;45238;-58
2021/08/25 03:53:11;;;;;;;;;12.50;11.75;;;;;17.88;58.12;101822.31;5041536;28;45527;-58
2021/08/25 03:55:37;;;;;;;;;12.75;9.50;;;;;17.84;57.47;101831.25;5041168;28;45320;-58
2021/08/25 03:58:02;;;;;;;;;11.00;11.00;;;;;17.70;58.48;101827.44;5040378;28;45319;-58
2021/08/25 04:00:27;;;;;;;;;12.75;12.00;;;;;17.66;58.12;101821.44;5041205;28;45341;-57
2021/08/25 04:02:53;;;;;;;;;13.00;11.75;;;;;17.55;58.35;101816.56;5041302;28;45868;-57
2021/08/25 04:05:18;;;;;;;;;10.00;10.00;;;;;17.47;58.39;101815.19;5049741;28;45289;-57
2021/08/25 04:07:43;;;;;;;;;12.25;11.50;;;;;17.41;59.20;101818.88;5040926;28;45316;-57
2021/08/25 04:10:09;;;;;;;;;13.00;11.00;;;;;17.48;59.57;101819.50;5041055;28;45277;-56
2021/08/25 04:12:35;;;;;;;;;12.75;11.25;;;;;17.41;59.47;101821.50;5040742;28;45564;-63
2021/08/25 04:15:00;;;;;;;;;14.00;11.00;;;;;17.29;59.02;101820.22;5041029;28;45262;-62
2021/08/25 04:17:25;;;;;;;;;16.00;11.75;;;;;17.15;58.87;101812.00;5022886;28;47435;-63
2021/08/25 04:19:51;;;;;;;;;13.75;12.00;;;;;16.98;59.47;101814.41;5040466;28;45388;-63
2021/08/25 04:22:16;;;;;;;;;14.75;12.00;;;;;16.84;59.82;101811.44;5040691;28;45313;-63
2021/08/25 04:24:41;;;;;;;;;14.00;12.75;;;;;16.75;60.40;101822.25;5040224;28;45293;-63
2021/08/25 04:27:07;;;;;;;;;11.50;11.50;;;;;16.66;61.79;101821.69;5040210;28;45238;-63
2021/08/25 04:29:32;;;;;;;;;11.75;11.75;;;;;16.53;62.21;101812.50;5040859;28;45199;-63
2021/08/25 04:31:57;;;;;;;;;16.00;16.00;;;;;16.45;62.58;101814.53;5041045;28;45233;-63
2021/08/25 04:34:23;;;;;;;;;7.50;6.25;;;;;16.37;61.85;101813.91;5040768;28;45483;-63
2021/08/25 04:36:48;;;;;;;;;21.50;16.75;;;;;16.35;62.02;101808.72;5039068;28;46093;-64
2021/08/25 04:39:14;;;;;;;;;17.25;13.50;;;;;16.24;61.82;101803.00;5040410;28;45307;-64
2021/08/25 04:41:39;;;;;;;;;14.25;14.00;;;;;16.24;62.40;101807.41;5040808;28;45820;-64
2021/08/25 04:44:06;;;;;;;;;13.75;11.00;;;;;16.18;62.53;101810.22;5040398;28;45403;-64
2021/08/25 04:46:32;;;;;;;;;48.25;37.00;;;;;16.15;63.35;101812.94;5040302;28;46190;-64
2021/08/25 04:48:58;;;;;;;;;19.75;13.00;;;;;16.11;63.29;101817.44;5041135;28;45768;-63
2021/08/25 04:51:24;;;;;;;;;16.25;14.50;;;;;16.07;63.00;101826.31;5041505;28;45305;-67
2021/08/25 04:53:49;;;;;;;;;14.00;12.75;;;;;16.01;64.35;101818.63;5049632;28;45418;-67
2021/08/25 04:56:14;;;;;;;;;14.50;10.25;;;;;15.94;65.03;101820.59;5040214;28;46125;-68
2021/08/25 04:58:40;;;;;;;;;19.25;12.00;;;;;15.90;65.27;101812.91;5040191;28;45416;-61
2021/08/25 05:01:06;;;;;;;;;18.00;14.50;;;;;15.89;63.99;101811.19;5040368;28;45274;-61
2021/08/25 05:03:33;;;;;;;;;14.75;13.00;;;;;15.87;64.49;101811.25;5040385;28;45234;-63
2021/08/25 05:05:58;;;;;;;;;16.75;12.25;;;;;15.86;64.91;101824.41;5040019;28;46189;-68
2021/08/25 05:08:24;;;;;;;;;16.25;14.00;;;;;15.82;64.95;101824.50;5039876;28;45376;-68
2021/08/25 05:10:50;;;;;;;;;14.75;14.25;;;;;15.80;65.34;101820.19;5047877;28;45313;-68
2021/08/25 05:13:15;;;;;;;;;19.75;14.75;;;;;15.80;65.52;101812.31;5039868;28;45234;-68
2021/08/25 05:15:45;;;;;;;;;14.75;14.00;;;;;15.79;64.96;101814.09;5039729;28;45221;-68
2021/08/25 05:18:11;;;;;;;;;17.00;16.50;;;;;15.77;65.03;101817.66;5049219;28;45369;-68
2021/08/25 05:20:36;;;;;;;;;15.75;13.50;;;;;15.78;65.91;101816.75;5037387;28;45387;-69
2021/08/25 05:23:01;;;;;;;;;15.25;13.50;;;;;15.76;66.09;101811.56;5037206;28;45614;-69
2021/08/25 05:25:27;;;;;;;;;20.25;14.50;;;;;15.76;66.08;101811.56;5037476;28;45349;-66
2021/08/25 05:27:52;;;;;;;;;19.00;15.25;;;;;15.74;66.73;101829.09;5037172;28;45356;-65
2021/08/25 05:30:18;;;;;;;;;18.50;15.00;;;;;15.73;65.98;101819.53;5037476;28;45433;-67
2021/08/25 05:32:43;;;;;;;;;10.50;8.50;;;;;15.72;66.00;101828.31;5037866;28;45884;-68
2021/08/25 05:35:09;;;;;;;;;17.00;13.50;;;;;15.75;66.10;101830.81;5038792;28;46360;-67
2021/08/25 05:37:35;;;;;;;;;21.00;13.00;;;;;15.77;66.76;101821.16;5044064;28;45193;-67
2021/08/25 05:40:00;;;;;;;;;13.75;9.25;;;;;15.80;66.28;101821.03;5044457;28;45226;-67
2021/08/25 05:42:25;;;;;;;;;15.00;13.00;;;;;15.82;65.51;101816.63;5039126;28;45430;-67
2021/08/25 05:44:51;;;;;;;;;13.25;12.75;;;;;15.82;66.91;101821.03;5039384;28;47460;-67
2021/08/25 05:47:16;;;;;;;;;17.00;13.75;;;;;15.84;67.17;101818.34;5027202;28;45412;-67
2021/08/25 05:49:41;;;;;;;;;16.25;13.25;;;;;15.83;67.53;101822.72;5034795;28;45300;-67
2021/08/25 05:52:07;;;;;;;;;16.00;15.25;;;;;15.80;67.38;101822.81;5041142;28;45384;-66
2021/08/25 05:54:32;;;;;;;;;25.00;16.25;;;;;15.82;65.65;101819.25;5021091;28;47496;-66
2021/08/25 05:56:58;;;;;;;;;16.50;13.75;;;;;15.87;66.69;101823.50;5038994;28;45471;-66
2021/08/25 05:59:24;;;;;;;;;16.50;12.00;;;;;15.87;66.30;101826.09;5039431;28;45369;-67
2021/08/25 06:01:49;;;;;;;;;20.00;16.75;;;;;15.92;65.91;101829.44;5039286;28;45336;-65
2021/08/25 06:04:15;;;;;;;;;20.75;15.75;;;;;15.95;66.42;101830.19;5039136;28;45395;-65
2021/08/25 06:06:40;;;;;;;;;28.50;19.00;;;;;15.95;66.57;101830.19;5036120;28;45323;-64
2021/08/25 06:09:05;;;;;;;;;20.25;15.75;;;;;16.01;66.59;101829.97;5039051;28;45284;-64
2021/08/25 06:11:32;;;;;;;;;17.75;16.00;;;;;16.03;66.90;101832.56;5038825;28;45526;-64
2021/08/25 06:13:57;;;;;;;;;22.75;17.50;;;;;16.09;66.34;101841.09;5038907;28;47059;-64
2021/08/25 06:16:22;;;;;;;;;17.75;14.25;;;;;16.11;66.91;101835.78;5039076;28;45229;-65
2021/08/25 06:18:48;;;;;;;;;17.50;14.00;;;;;16.17;66.36;101834.72;5039167;28;45278;-65
2021/08/25 06:21:16;;;;;;;;;15.75;10.00;;;;;16.25;66.91;101833.56;5038878;28;45300;-65
2021/08/25 06:23:43;;;;;;;;;19.75;14.75;;;;;16.29;65.94;101836.94;5038835;28;45528;-65
2021/08/25 06:26:08;;;;;;;;;18.25;13.00;;;;;16.33;65.57;101830.69;5038950;28;45511;-65
2021/08/25 06:28:34;;;;;;;;;22.75;17.00;;;;;16.34;66.24;101824.53;5038151;28;45468;-66
2021/08/25 06:30:59;;;;;;;;;20.50;16.75;;;;;16.39;65.50;101819.97;5038594;28;45479;-64
2021/08/25 06:33:25;;;;;;;;;15.00;12.75;;;;;16.47;65.04;101822.34;5039131;28;46285;-64
2021/08/25 06:35:50;;;;;;;;;25.50;20.00;;;;;16.52;64.63;101831.75;5038595;28;45350;-64
2021/08/25 06:38:15;;;;;;;;;23.00;15.00;;;;;16.56;65.13;101830.75;5034094;28;45346;-63
2021/08/25 06:40:40;;;;;;;;;18.25;12.25;;;;;16.61;65.08;101828.81;5038757;28;45439;-67
2021/08/25 06:43:06;;;;;;;;;12.75;10.00;;;;;16.70;64.30;101831.16;5038727;28;46177;-69
2021/08/25 06:45:31;;;;;;;;;14.75;13.00;;;;;16.77;64.41;101836.19;5038498;28;45345;-67
2021/08/25 06:47:57;;;;;;;;;14.00;12.75;;;;;16.81;64.67;101835.16;5039129;28;45412;-67
2021/08/25 06:50:22;;;;;;;;;15.25;13.50;;;;;16.84;64.39;101821.94;5038335;28;45840;-65
2021/08/25 06:52:47;;;;;;;;;14.75;11.00;;;;;16.92;64.20;101835.63;5038074;28;46014;-66
2021/08/25 06:55:13;;;;;;;;;17.50;15.50;;;;;16.98;63.55;101841.50;5038259;28;45229;-65
2021/08/25 06:57:38;;;;;;;;;18.75;15.00;;;;;17.01;63.78;101840.53;5038228;28;45329;-65
2021/08/25 07:00:05;;;;;;;;;14.25;13.50;;;;;17.06;64.29;101836.00;5039489;28;46662;-65
2021/08/25 07:02:30;;;;;;;;;17.50;13.50;;;;;17.11;64.18;101833.19;5033278;28;46275;-65
2021/08/25 07:04:55;;;;;;;;;13.00;11.00;;;;;17.19;63.71;101831.97;5041013;28;45211;-65
2021/08/25 07:07:21;;;;;;;;;14.50;12.50;;;;;17.26;63.43;101841.38;5041801;28;45222;-65
2021/08/25 07:09:46;;;;;;;;;12.00;12.00;;;;;17.37;63.17;101840.94;5042867;28;45278;-65
2021/08/25 07:12:11;;;;;;;;;12.00;10.75;;;;;17.48;62.98;101848.44;5047549;28;45992;-66
2021/08/25 07:14:37;;;;;;;;;17.25;15.00;;;;;17.60;62.80;101848.78;5015297;28;45183;-64
2021/08/25 07:17:02;;;;;;;;;15.25;12.75;;;;;17.69;62.23;101852.88;5041832;28;45323;-64
2021/08/25 07:19:28;;;;;;;;;15.25;13.75;;;;;17.72;62.00;101836.97;5041537;28;45314;-64
2021/08/25 07:21:53;;;;;;;;;11.75;11.25;;;;;17.83;62.17;101845.31;5041880;28;45400;-64
2021/08/25 07:24:19;;;;;;;;;14.00;12.25;;;;;17.88;61.03;101840.72;5041586;28;45286;-65
2021/08/25 07:26:44;;;;;;;;;11.00;11.00;;;;;17.96;61.10;101840.38;5041716;28;45289;-65
2021/08/25 07:29:09;;;;;;;;;15.25;12.75;;;;;18.07;60.87;101834.72;5041519;28;45328;-65
2021/08/25 07:31:35;;;;;;;;;17.00;12.00;;;;;18.18;60.67;101822.78;5041583;28;45369;-65
2021/08/25 07:34:00;;;;;;;;;17.00;14.75;;;;;18.24;60.92;101827.81;5041538;28;45446;-65
2021/08/25 07:36:26;;;;;;;;;17.00;14.75;;;;;18.35;60.28;101823.88;5041465;28;45477;-65
2021/08/25 07:38:52;;;;;;;;;18.75;12.75;;;;;18.48;60.43;101830.34;5041128;28;45309;-68
2021/08/25 07:41:18;;;;;;;;;11.50;11.00;;;;;18.55;59.76;101837.03;5041464;28;46038;-67
2021/08/25 07:43:43;;;;;;;;;13.00;11.00;;;;;18.64;59.24;101836.69;5041221;28;45702;-67
2021/08/25 07:46:09;;;;;;;;;8.00;7.00;;;;;18.69;59.09;101841.75;5041578;28;45296;-66
2021/08/25 07:48:34;;;;;;;;;14.75;11.00;;;;;18.75;59.39;101844.09;5041419;28;45596;-66
2021/08/25 07:51:00;;;;;;;;;12.00;10.00;;;;;18.81;58.86;101831.50;5040709;28;46182;-66
2021/08/25 07:53:25;;;;;;;;;15.50;12.25;;;;;18.90;58.94;101830.25;5040721;28;45427;-66
2021/08/25 07:55:51;;;;;;;;;20.50;15.50;;;;;19.00;58.63;101828.91;5041426;28;45307;-65
2021/08/25 07:58:17;;;;;;;;;12.50;10.50;;;;;19.10;58.36;101829.34;5022722;28;45458;-66
2021/08/25 08:00:42;;;;;;;;;19.25;13.00;;;;;19.23;58.19;101829.66;5041303;28;45441;-65
2021/08/25 08:03:07;;;;;;;;;13.00;11.25;;;;;19.30;57.83;101831.94;5041052;28;45425;-66
2021/08/25 08:05:33;;;;;;;;;11.00;10.00;;;;;19.38;57.14;101827.13;5041064;28;45325;-66
2021/08/25 08:07:58;;;;;;;;;13.25;11.75;;;;;19.47;57.84;101830.28;5040966;28;45372;-66
2021/08/25 08:10:24;;;;;;;;;15.75;13.50;;;;;19.61;57.27;101819.94;5047177;28;46292;-65
2021/08/25 08:12:50;;;;;;;;;12.00;11.00;;;;;19.77;57.52;101822.72;5041059;28;45445;-66
2021/08/25 08:15:16;;;;;;;;;15.00;12.50;;;;;19.85;56.43;101821.41;5031708;28;45299;-68
2021/08/25 08:17:46;;;;;;;;;13.00;11.00;;;;;19.93;56.20;101818.41;5040521;28;45322;-71
2021/08/25 08:20:13;;;;;;;;;13.50;10.75;;;;;20.03;55.91;101815.25;5040796;28;47083;-69
2021/08/25 08:22:39;;;;;;;;;12.75;10.75;;;;;20.10;54.63;101815.78;5040096;28;45336;-68
2021/08/25 08:25:05;;;;;;;;;11.00;9.75;;;;;20.12;55.00;101810.41;5041040;28;45569;-68
2021/08/25 08:27:31;;;;;;;;;13.25;12.00;;;;;20.13;55.51;101814.75;5040703;28;45435;-65
2021/08/25 08:29:56;;;;;;;;;7.00;6.75;;;;;20.20;55.08;101810.88;5026942;28;46775;-66
2021/08/25 08:32:22;;;;;;;;;15.50;12.25;;;;;20.23;54.57;101808.09;5040588;28;45333;-68
2021/08/25 08:34:47;;;;;;;;;15.50;13.25;;;;;20.28;54.79;101812.22;5048142;28;45632;-68
2021/08/25 08:37:13;;;;;;;;;15.50;11.75;;;;;20.33;54.96;101807.53;5040893;28;45427;-66
2021/08/25 08:39:38;;;;;;;;;17.75;14.50;;;;;20.36;54.31;101807.38;5040046;28;45345;-68
2021/08/25 08:42:04;;;;;;;;;10.50;10.25;;;;;20.45;54.79;101805.25;5040316;28;45205;-67
2021/08/25 08:44:30;;;;;;;;;14.50;12.00;;;;;20.50;53.96;101803.22;5040696;28;45317;-66
2021/08/25 08:46:56;;;;;;;;;12.75;12.75;;;;;20.54;53.61;101797.69;5040270;28;45475;-66
2021/08/25 08:49:22;;;;;;;;;9.75;9.00;;;;;20.59;53.90;101805.38;5041295;28;45435;-68
2021/08/25 08:51:49;;;;;;;;;18.75;14.50;;;;;20.65;53.71;101805.06;5040875;28;45399;-66
2021/08/25 08:54:16;;;;;;;;;13.50;11.50;;;;;20.69;53.45;101801.31;5031513;28;45339;-64
2021/08/25 08:56:42;;;;;;;;;14.00;10.50;;;;;20.75;53.15;101803.63;5039647;28;45416;-65
2021/08/25 08:59:07;;;;;;;;;14.25;13.75;;;;;20.82;51.98;101801.50;5039852;28;45429;-65
2021/08/25 09:01:34;;;;;;;;;11.50;9.75;;;;;20.88;51.97;101807.34;5022120;28;45255;-66
2021/08/25 09:04:00;;;;;;;;;15.00;11.75;;;;;20.96;52.09;101805.13;5040466;28;45246;-65
2021/08/25 09:06:45;;;;;;;;;15.25;14.00;;;;;21.07;52.44;101799.25;5021821;28;45509;-68
2021/08/25 09:09:11;;;;;;;;;13.00;11.00;;;;;21.15;52.20;101794.41;5039754;28;46048;-67
2021/08/25 09:11:54;;;;;;;;;13.75;11.25;;;;;21.21;51.11;101796.69;5039738;28;45253;-67
2021/08/25 09:14:19;;;;;;;;;16.25;12.00;;;;;21.24;52.30;101803.66;5039906;28;45279;-64
2021/08/25 09:16:45;;;;;;;;;14.50;12.50;;;;;21.31;51.47;101802.38;5039738;28;45466;-63
2021/08/25 09:19:14;;;;;;;;;15.00;11.75;;;;;21.31;51.23;101799.72;5039493;28;46289;-63
2021/08/25 09:21:41;;;;;;;;;13.50;11.50;;;;;21.38;51.37;101790.50;5039484;28;45259;-64
2021/08/25 09:24:09;;;;;;;;;13.75;12.25;;;;;21.44;51.61;101794.63;5038969;28;45531;-65
2021/08/25 09:26:36;;;;;;;;;15.00;11.75;;;;;21.45;51.04;101786.59;5031039;28;45293;-65
2021/08/25 09:29:19;;;;;;;;;10.25;10.00;;;;;21.52;51.33;101781.81;5038549;28;46440;-64
2021/08/25 09:31:47;;;;;;;;;12.25;10.25;;;;;21.53;50.30;101778.22;5038305;28;45277;-64
2021/08/25 09:34:28;;;;;;;;;12.00;12.00;;;;;21.52;49.86;101785.31;5039216;28;45425;-66
2021/08/25 09:37:08;;;;;;;;;12.25;11.25;;;;;21.55;49.55;101781.63;5036423;28;45617;-65
2021/08/25 09:39:34;;;;;;;;;10.50;9.75;;;;;21.49;49.31;101777.53;5030906;28;45364;-69
2021/08/25 09:42:04;;;;;;;;;9.50;7.75;;;;;21.66;49.39;101775.75;5020126;28;45444;-67
2021/08/25 09:44:30;;;;;;;;;11.75;10.75;;;;;21.75;49.35;101783.13;5039016;28;45300;-73
2021/08/25 09:46:55;;;;;;;;;7.25;6.25;;;;;21.83;49.34;101795.00;5037826;28;45518;-67
2021/08/25 09:49:20;;;;;;;;;8.75;8.75;;;;;21.90;49.01;101786.69;5038865;28;45350;-69
2021/08/25 09:51:46;;;;;;;;;9.50;9.50;;;;;21.92;48.88;101780.38;5040027;28;45280;-69
2021/08/25 09:54:15;;;;;;;;;10.50;9.25;;;;;22.00;48.30;101774.63;5020051;28;45273;-68
2021/08/25 09:56:43;;;;;;;;;9.50;9.00;;;;;22.06;47.87;101771.66;5037822;28;45489;-67
2021/08/25 09:59:11;;;;;;;;;14.00;9.50;;;;;22.17;47.98;101764.75;5037552;28;45436;-67
2021/08/25 10:01:37;;;;;;;;;11.25;8.50;;;;;22.36;46.94;101769.81;5037447;28;45299;-67
2021/08/25 10:04:07;;;;;;;;;12.75;11.00;;;;;22.50;47.51;101761.03;5039256;28;45622;-67
2021/08/25 10:06:36;;;;;;;;;11.50;11.25;;;;;22.54;46.50;101767.00;5036815;28;45305;-67
2021/08/25 10:09:04;;;;;;;;;10.00;7.50;;;;;22.57;46.25;101759.69;5037063;28;46294;-66
2021/08/25 10:11:31;;;;;;;;;10.00;8.00;;;;;22.51;44.08;101761.88;5036835;28;45412;-67
2021/08/25 10:13:59;;;;;;;;;9.00;9.00;;;;;22.53;45.18;101755.53;5037312;28;45463;-69
2021/08/25 10:16:46;;;;;;;;;11.00;10.25;;;;;22.57;44.26;101762.34;5037185;28;45424;-69
2021/08/25 10:19:39;;;;;;;;;9.75;9.25;;;;;22.57;44.72;101762.34;5035314;28;46380;-68
2021/08/25 10:22:13;;;;;;;;;12.00;11.75;;;;;22.55;44.67;101750.16;5034704;28;45654;-69
2021/08/25 10:24:57;;;;;;;;;10.25;9.75;;;;;22.54;43.70;101748.44;5018694;28;45373;-69
2021/08/25 10:27:25;;;;;;;;;10.50;9.25;;;;;22.55;44.58;101743.03;5036938;28;45524;-69
2021/08/25 10:30:02;;;;;;;;;8.50;7.00;;;;;22.56;44.63;101744.75;5037450;28;46204;-68
2021/08/25 10:32:52;;;;;;;;;8.50;6.00;;;;;22.58;43.44;101740.19;5037199;28;45309;-68
2021/08/25 10:35:32;;;;;;;;;8.00;7.75;;;;;22.60;43.66;101742.75;5029095;28;45562;-68
2021/08/25 10:38:30;;;;;;;;;7.50;7.50;;;;;22.69;43.66;101742.19;5039565;28;45360;-70
2021/08/25 10:41:17;;;;;;;;;11.00;8.75;;;;;22.76;43.41;101730.25;4996404;28;46090;-68
2021/08/25 10:43:44;;;;;;;;;8.75;7.50;;;;;22.83;43.37;101734.28;5040037;28;45643;-68
2021/08/25 10:46:14;;;;;;;;;8.50;8.00;;;;;;;;5040876;28;45293;-67
2021/08/25 10:48:51;;;;;;;;;9.25;6.25;;;;;22.95;43.56;101735.28;5038610;28;45412;-70
2021/08/25 10:51:27;;;;;;;;;8.50;7.75;;;;;23.05;43.87;101725.81;5041620;28;45384;-71
2021/08/25 10:53:52;;;;;;;;;10.50;8.75;;;;;23.05;44.05;101725.81;5041545;28;45295;-65
2021/08/25 10:56:31;;;;;;;;;10.00;10.00;;;;;23.09;42.93;101723.81;5020838;28;45340;-67
2021/08/25 10:59:02;;;;;;;;;14.00;10.25;;;;;23.09;41.96;101721.16;5041091;28;45436;-64
2021/08/25 11:01:48;;;;;;;;;9.25;7.25;;;;;23.13;43.10;101720.84;5041509;28;46979;-71
2021/08/25 11:04:17;;;;;;;;;11.00;9.00;;;;;23.14;42.71;101719.91;5037275;28;45158;-67
2021/08/25 11:06:55;;;;;;;;;9.25;6.25;;;;;23.14;42.96;101717.25;5038570;28;45511;-74
2021/08/25 11:09:24;;;;;;;;;10.25;9.00;;;;;23.13;42.40;101706.75;5038173;28;45324;-71
2021/08/25 11:11:59;;;;;;;;;11.00;9.50;;;;;23.18;42.31;101705.47;5040958;28;45546;-59
2021/08/25 11:14:31;;;;;;;;;10.50;10.25;;;;;23.28;42.20;101705.75;5041153;28;45264;-60